createdAt,value
2023-06-24T00:01:35.242Z,100.00
2023-06-24T00:04:38.167Z,100.00
2023-06-24T00:07:46.261Z,100.00
2023-06-24T00:10:49.868Z,100.00
2023-06-24T00:13:52.668Z,100.00
2023-06-24T00:16:56.165Z,100.00
2023-06-24T00:19:59.013Z,100.00
2023-06-24T00:23:01.873Z,100.00
2023-06-24T00:26:04.824Z,100.00
2023-06-24T00:29:07.614Z,100.00
2023-06-24T00:32:10.425Z,100.00
2023-06-24T00:35:13.515Z,100.00
2023-06-24T00:38:16.313Z,100.00
2023-06-24T00:41:22.337Z,100.00
2023-06-24T00:44:25.314Z,100.00
2023-06-24T00:47:28.200Z,100.00
2023-06-24T00:50:30.972Z,100.00
2023-06-24T00:53:33.821Z,100.00
2023-06-24T00:56:39.846Z,100.00
2023-06-24T00:59:44.394Z,100.00
2023-06-24T01:02:51.018Z,100.00
2023-06-24T01:05:55.472Z,100.00
2023-06-24T01:08:59.133Z,100.00
2023-06-24T01:12:01.953Z,100.00
2023-06-24T01:15:06.072Z,100.00
2023-06-24T01:18:13.342Z,100.00
2023-06-24T01:21:29.384Z,100.00
2023-06-24T01:25:10.182Z,100.00
2023-06-24T01:28:35.923Z,100.00
2023-06-24T01:31:40.324Z,100.00
2023-06-24T01:35:05.700Z,100.00
2023-06-24T01:38:24.162Z,100.00
2023-06-24T01:41:28.083Z,100.00
2023-06-24T01:44:31.773Z,100.00
2023-06-24T01:47:35.800Z,100.00
2023-06-24T01:50:40.724Z,100.00
2023-06-24T01:53:47.062Z,100.00
2023-06-24T01:56:51.190Z,100.00
2023-06-24T01:59:56.168Z,100.00
2023-06-24T02:02:59.463Z,100.00
2023-06-24T02:06:03.611Z,100.00
2023-06-24T02:09:07.261Z,100.00
2023-06-24T02:12:10.656Z,100.00
2023-06-24T02:15:13.729Z,100.00
2023-06-24T02:18:17.186Z,100.00
2023-06-24T02:21:21.543Z,100.00
2023-06-24T02:24:24.949Z,100.00
2023-06-24T02:27:28.026Z,100.00
2023-06-24T02:30:30.838Z,100.00
2023-06-24T02:33:33.645Z,100.00
2023-06-24T02:36:36.374Z,100.00
2023-06-24T02:39:45.397Z,100.00
2023-06-24T02:42:48.333Z,100.00
2023-06-24T02:45:51.506Z,100.00
2023-06-24T02:48:54.594Z,100.00
2023-06-24T02:51:57.439Z,100.00
2023-06-24T02:55:00.380Z,100.00
2023-06-24T02:58:03.879Z,100.00
2023-06-24T03:01:08.194Z,100.00
2023-06-24T03:04:11.014Z,100.00
2023-06-24T03:07:14.242Z,100.00
2023-06-24T03:10:17.099Z,100.00
2023-06-24T03:13:19.977Z,100.00
2023-06-24T03:16:22.808Z,100.00
2023-06-24T03:19:25.563Z,100.00
2023-06-24T03:22:28.343Z,100.00
2023-06-24T03:25:31.004Z,100.00
2023-06-24T03:28:33.914Z,100.00
2023-06-24T03:31:36.712Z,100.00
2023-06-24T03:34:39.494Z,100.00
2023-06-24T03:37:42.229Z,100.00
2023-06-24T03:40:45.260Z,100.00
2023-06-24T03:43:48.307Z,100.00
2023-06-24T03:46:51.100Z,100.00
2023-06-24T03:49:53.795Z,100.00
2023-06-24T03:52:56.501Z,100.00
2023-06-24T03:55:59.464Z,100.00
2023-06-24T03:59:03.880Z,100.00
2023-06-24T04:02:10.627Z,100.00
2023-06-24T04:05:13.391Z,100.00
2023-06-24T04:08:16.020Z,100.00
2023-06-24T04:11:19.232Z,100.00
2023-06-24T04:14:21.937Z,100.00
2023-06-24T04:17:25.219Z,100.00
2023-06-24T04:20:27.969Z,100.00
2023-06-24T04:23:30.690Z,100.00
2023-06-24T04:26:33.443Z,100.00
2023-06-24T04:29:36.128Z,100.00
2023-06-24T04:32:38.916Z,100.00
2023-06-24T04:35:41.752Z,100.00
2023-06-24T04:38:44.481Z,100.00
2023-06-24T04:41:48.076Z,100.00
2023-06-24T04:44:53.540Z,100.00
2023-06-24T04:47:56.438Z,100.00
2023-06-24T04:50:59.421Z,100.00
2023-06-24T04:54:02.476Z,100.00
2023-06-24T04:57:10.075Z,99.88
2023-06-24T05:00:13.155Z,100.00
2023-06-24T05:03:15.979Z,99.66
2023-06-24T05:06:18.802Z,97.94
2023-06-24T05:09:21.527Z,98.03
2023-06-24T05:12:24.382Z,96.85
2023-06-24T05:15:27.535Z,94.90
2023-06-24T05:18:30.287Z,96.18
2023-06-24T05:21:32.954Z,96.09
2023-06-24T05:24:35.847Z,95.29
2023-06-24T05:27:38.633Z,95.07
2023-06-24T05:30:42.780Z,93.14
2023-06-24T05:33:45.565Z,94.48
2023-06-24T05:36:48.277Z,94.31
2023-06-24T05:39:51.025Z,93.25
2023-06-24T05:42:53.798Z,92.71
2023-06-24T05:45:56.467Z,93.17
2023-06-24T05:48:59.285Z,93.26
2023-06-24T05:52:02.020Z,93.62
2023-06-24T05:55:05.152Z,93.55
2023-06-24T05:58:07.863Z,94.01
2023-06-24T06:01:13.764Z,94.20
2023-06-24T06:04:16.600Z,95.00
2023-06-24T06:07:20.251Z,93.38
2023-06-24T06:10:23.304Z,93.52
2023-06-24T06:13:26.012Z,92.36
2023-06-24T06:16:29.734Z,91.45
2023-06-24T06:19:32.424Z,90.17
2023-06-24T06:22:39.058Z,89.73
2023-06-24T06:25:41.812Z,89.50
2023-06-24T06:28:44.465Z,89.34
2023-06-24T06:31:47.226Z,89.59
2023-06-24T06:34:50.044Z,88.86
2023-06-24T06:37:56.871Z,89.56
2023-06-24T06:41:00.023Z,90.24
2023-06-24T06:44:02.864Z,90.66
2023-06-24T06:47:05.934Z,91.19
2023-06-24T06:50:11.769Z,92.04
2023-06-24T06:53:14.577Z,92.80
2023-06-24T06:56:27.039Z,93.59
2023-06-24T06:59:29.770Z,92.51
2023-06-24T07:02:32.561Z,91.32
2023-06-24T07:05:38.515Z,90.79
2023-06-24T07:08:41.962Z,90.12
2023-06-24T07:11:44.891Z,90.17
2023-06-24T07:14:47.705Z,90.50
2023-06-24T07:17:50.496Z,91.62
2023-06-24T07:20:54.917Z,90.19
2023-06-24T07:23:57.688Z,90.42
2023-06-24T07:27:00.430Z,89.58
2023-06-24T07:30:03.263Z,90.28
2023-06-24T07:33:06.892Z,90.37
2023-06-24T07:36:11.981Z,89.95
2023-06-24T07:39:14.955Z,91.33
2023-06-24T07:42:20.668Z,88.01
2023-06-24T07:45:23.734Z,88.61
2023-06-24T07:48:26.590Z,89.39
2023-06-24T07:51:29.387Z,90.08
2023-06-24T07:54:32.261Z,90.00
2023-06-24T07:57:34.955Z,89.46
2023-06-24T08:00:39.701Z,90.67
2023-06-24T08:03:42.810Z,90.21
2023-06-24T08:06:45.776Z,90.26
2023-06-24T08:09:48.516Z,90.15
2023-06-24T08:12:51.228Z,88.83
2023-06-24T08:15:54.025Z,89.53
2023-06-24T08:18:56.861Z,89.93
2023-06-24T08:21:59.602Z,90.36
2023-06-24T08:25:02.398Z,91.40
2023-06-24T08:28:05.258Z,90.88
2023-06-24T08:31:08.033Z,89.33
2023-06-24T08:34:10.807Z,88.91
2023-06-24T08:37:13.570Z,90.30
2023-06-24T08:40:16.330Z,91.21
2023-06-24T08:43:19.109Z,91.75
2023-06-24T08:46:25.865Z,90.68
2023-06-24T08:49:32.575Z,91.15
2023-06-24T08:52:38.096Z,92.35
2023-06-24T08:55:50.277Z,90.75
2023-06-24T08:58:53.248Z,90.12
2023-06-24T09:01:55.993Z,88.56
2023-06-24T09:04:58.821Z,89.34
2023-06-24T09:08:01.459Z,88.06
2023-06-24T09:11:04.494Z,87.34
2023-06-24T09:14:07.137Z,86.06
2023-06-24T09:17:10.850Z,86.12
2023-06-24T09:20:13.638Z,86.17
2023-06-24T09:23:18.314Z,86.46
2023-06-24T09:26:20.990Z,85.11
2023-06-24T09:29:34.139Z,83.89
2023-06-24T09:32:37.790Z,83.89
2023-06-24T09:35:40.767Z,82.11
2023-06-24T09:38:45.947Z,80.51
2023-06-24T09:41:52.454Z,81.03
2023-06-24T09:44:57.219Z,82.23
2023-06-24T09:48:01.508Z,83.31
2023-06-24T09:51:05.962Z,84.05
2023-06-24T09:54:09.981Z,84.26
2023-06-24T09:57:13.381Z,84.10
2023-06-24T10:00:17.936Z,84.72
2023-06-24T10:03:21.107Z,85.02
2023-06-24T10:06:28.576Z,86.14
2023-06-24T10:09:31.373Z,85.25
2023-06-24T10:12:36.567Z,83.45
2023-06-24T10:15:39.457Z,80.92
2023-06-24T10:18:42.578Z,80.45
2023-06-24T10:21:49.450Z,80.88
2023-06-24T10:24:53.752Z,82.23
2023-06-24T10:27:56.578Z,82.23
2023-06-24T10:30:59.369Z,82.11
2023-06-24T10:34:02.261Z,79.55
2023-06-24T10:37:22.078Z,77.36
2023-06-24T10:40:54.325Z,76.93
2023-06-24T10:43:59.339Z,76.98
2023-06-24T10:47:02.518Z,74.04
2023-06-24T10:50:06.959Z,75.37
2023-06-24T10:53:10.081Z,74.11
2023-06-24T10:56:12.830Z,72.34
2023-06-24T10:59:15.635Z,73.93
2023-06-24T11:02:20.455Z,72.47
2023-06-24T11:05:23.490Z,75.89
2023-06-24T11:08:26.672Z,75.55
2023-06-24T11:11:30.945Z,74.94
2023-06-24T11:14:37.853Z,74.61
2023-06-24T11:17:42.485Z,73.56
2023-06-24T11:20:45.647Z,74.96
2023-06-24T11:23:48.528Z,72.93
2023-06-24T11:26:52.856Z,74.48
2023-06-24T11:29:59.617Z,75.97
2023-06-24T11:33:03.745Z,75.33
2023-06-24T11:36:11.327Z,72.22
2023-06-24T11:39:28.589Z,74.02
2023-06-24T11:42:31.975Z,73.90
2023-06-24T11:45:34.852Z,72.37
2023-06-24T11:48:41.988Z,73.86
2023-06-24T11:51:51.759Z,75.79
2023-06-24T11:54:54.499Z,76.87
2023-06-24T11:58:07.642Z,77.64
2023-06-24T12:01:10.503Z,76.79
2023-06-24T12:04:14.911Z,75.91
2023-06-24T12:07:17.954Z,74.57
2023-06-24T12:10:20.802Z,74.69
2023-06-24T12:13:24.387Z,75.05
2023-06-24T12:16:27.961Z,75.19
2023-06-24T12:19:30.717Z,76.85
2023-06-24T12:22:33.623Z,75.69
2023-06-24T12:25:36.452Z,75.02
2023-06-24T12:28:39.522Z,75.46
2023-06-24T12:31:42.995Z,75.08
2023-06-24T12:34:45.760Z,74.66
2023-06-24T12:37:49.114Z,73.25
2023-06-24T12:40:52.016Z,71.48
2023-06-24T12:43:54.744Z,71.93
2023-06-24T12:46:57.532Z,72.10
2023-06-24T12:50:00.343Z,70.75
2023-06-24T12:53:04.395Z,68.88
2023-06-24T12:56:07.165Z,70.88
2023-06-24T12:59:13.036Z,71.54
2023-06-24T13:02:15.719Z,71.20
2023-06-24T13:05:19.410Z,70.52
2023-06-24T13:08:22.310Z,69.39
2023-06-24T13:11:25.084Z,67.71
2023-06-24T13:14:29.523Z,69.53
2023-06-24T13:17:32.671Z,66.97
2023-06-24T13:20:35.871Z,68.76
2023-06-24T13:23:40.096Z,67.84
2023-06-24T13:26:43.203Z,65.67
2023-06-24T13:29:46.239Z,66.34
2023-06-24T13:32:50.513Z,66.35
2023-06-24T13:35:53.986Z,67.56
2023-06-24T13:38:56.756Z,69.02
2023-06-24T13:41:59.639Z,70.05
2023-06-24T13:45:03.000Z,68.73
2023-06-24T13:48:05.883Z,66.82
2023-06-24T13:51:08.678Z,64.99
2023-06-24T13:54:11.517Z,64.52
2023-06-24T13:57:14.544Z,65.26
2023-06-24T14:00:17.584Z,62.96
2023-06-24T14:03:20.288Z,63.92
2023-06-24T14:06:24.188Z,62.94
2023-06-24T14:09:26.959Z,60.25
2023-06-24T14:12:30.125Z,61.24
2023-06-24T14:15:32.870Z,60.70
2023-06-24T14:18:36.226Z,63.15
2023-06-24T14:21:39.321Z,63.50
2023-06-24T14:24:43.238Z,61.90
2023-06-24T14:27:45.988Z,63.79
2023-06-24T14:30:49.312Z,63.78
2023-06-24T14:33:52.273Z,64.98
2023-06-24T14:36:55.023Z,67.82
2023-06-24T14:39:57.906Z,68.11
2023-06-24T14:43:01.182Z,65.18
2023-06-24T14:46:04.305Z,65.45
2023-06-24T14:49:07.114Z,66.21
2023-06-24T14:52:10.329Z,67.45
2023-06-24T14:55:13.295Z,68.77
2023-06-24T14:58:17.850Z,69.85
2023-06-24T15:01:22.181Z,71.04
2023-06-24T15:04:25.179Z,70.77
2023-06-24T15:07:27.938Z,71.61
2023-06-24T15:10:31.118Z,71.00
2023-06-24T15:13:34.109Z,67.90
2023-06-24T15:16:36.863Z,64.64
2023-06-24T15:19:39.591Z,63.21
2023-06-24T15:22:43.154Z,65.64
2023-06-24T15:25:45.806Z,64.14
2023-06-24T15:28:49.346Z,64.57
2023-06-24T15:31:52.092Z,63.54
2023-06-24T15:34:55.003Z,64.56
2023-06-24T15:37:59.321Z,62.22
2023-06-24T15:41:02.062Z,63.89
2023-06-24T15:44:08.103Z,62.69
2023-06-24T15:47:11.690Z,61.94
2023-06-24T15:50:14.498Z,63.19
2023-06-24T15:53:17.529Z,63.03
2023-06-24T15:56:20.215Z,62.04
2023-06-24T15:59:26.309Z,62.81
2023-06-24T16:02:29.103Z,63.21
2023-06-24T16:05:31.928Z,63.63
2023-06-24T16:08:34.647Z,63.48
2023-06-24T16:11:37.398Z,63.08
2023-06-24T16:14:40.145Z,66.64
2023-06-24T16:17:42.928Z,68.01
2023-06-24T16:20:45.866Z,68.58
2023-06-24T16:23:49.008Z,69.11
2023-06-24T16:26:53.147Z,68.87
2023-06-24T16:29:56.069Z,69.15
2023-06-24T16:32:58.851Z,71.00
2023-06-24T16:36:01.813Z,71.72
2023-06-24T16:39:05.184Z,72.37
2023-06-24T16:42:08.076Z,72.62
2023-06-24T16:45:11.011Z,74.90
2023-06-24T16:48:13.814Z,74.72
2023-06-24T16:51:16.724Z,75.29
2023-06-24T16:54:20.632Z,75.79
2023-06-24T16:57:23.609Z,76.05
2023-06-24T17:00:26.363Z,75.87
2023-06-24T17:03:30.527Z,75.57
2023-06-24T17:06:36.328Z,75.65
2023-06-24T17:09:39.073Z,76.17
2023-06-24T17:12:42.522Z,76.14
2023-06-24T17:15:48.653Z,76.73
2023-06-24T17:18:51.403Z,75.70
2023-06-24T17:21:55.319Z,76.59
2023-06-24T17:24:58.198Z,77.12
2023-06-24T17:28:01.009Z,76.67
2023-06-24T17:31:03.744Z,77.18
2023-06-24T17:34:06.506Z,77.87
2023-06-24T17:37:15.569Z,78.11
2023-06-24T17:40:18.269Z,78.03
2023-06-24T17:43:27.797Z,78.58
2023-06-24T17:46:46.981Z,79.82
2023-06-24T17:49:52.711Z,80.70
2023-06-24T17:52:55.514Z,81.32
2023-06-24T17:55:58.392Z,81.39
2023-06-24T17:59:01.132Z,81.49
2023-06-24T18:02:04.472Z,81.88
2023-06-24T18:05:07.916Z,81.97
2023-06-24T18:08:10.697Z,81.76
2023-06-24T18:11:13.383Z,81.88
2023-06-24T18:14:32.086Z,81.86
2023-06-24T18:17:35.912Z,82.63
2023-06-24T18:20:49.460Z,82.63
2023-06-24T18:23:54.777Z,82.14
2023-06-24T18:26:57.576Z,81.33
2023-06-24T18:30:00.325Z,81.68
2023-06-24T18:33:06.734Z,81.65
2023-06-24T18:36:13.795Z,81.32
2023-06-24T18:39:18.848Z,81.42
2023-06-24T18:42:25.427Z,81.47
2023-06-24T18:45:28.700Z,81.51
2023-06-24T18:48:33.719Z,81.83
2023-06-24T18:51:36.857Z,82.26
2023-06-24T18:54:39.806Z,82.46
2023-06-24T18:57:44.630Z,82.87
2023-06-24T19:00:48.014Z,83.95
2023-06-24T19:03:50.832Z,84.04
2023-06-24T19:06:53.724Z,84.30
2023-06-24T19:09:56.417Z,84.66
2023-06-24T19:12:59.746Z,85.61
2023-06-24T19:16:02.581Z,85.04
2023-06-24T19:19:06.939Z,85.29
2023-06-24T19:22:09.729Z,85.77
2023-06-24T19:25:13.300Z,85.24
2023-06-24T19:28:16.172Z,86.23
2023-06-24T19:31:19.209Z,85.63
2023-06-24T19:34:22.015Z,85.55
2023-06-24T19:37:24.652Z,85.39
2023-06-24T19:40:27.673Z,85.88
2023-06-24T19:43:30.388Z,86.21
2023-06-24T19:46:41.038Z,86.33
2023-06-24T19:49:54.338Z,86.21
2023-06-24T19:52:57.199Z,86.62
2023-06-24T19:56:00.024Z,86.44
2023-06-24T19:59:02.877Z,86.55
2023-06-24T20:02:05.932Z,87.11
2023-06-24T20:05:08.966Z,87.08
2023-06-24T20:08:11.683Z,87.43
2023-06-24T20:11:14.837Z,86.99
2023-06-24T20:14:17.610Z,86.85
2023-06-24T20:17:20.450Z,87.82
2023-06-24T20:20:23.202Z,87.66
2023-06-24T20:23:26.012Z,87.91
2023-06-24T20:26:28.834Z,87.63
2023-06-24T20:29:31.571Z,87.49
2023-06-24T20:32:35.793Z,88.29
2023-06-24T20:35:38.551Z,88.05
2023-06-24T20:38:41.270Z,87.86
2023-06-24T20:41:44.021Z,88.18
2023-06-24T20:44:47.241Z,88.21
2023-06-24T20:47:50.029Z,88.88
2023-06-24T20:50:52.800Z,88.16
2023-06-24T20:53:55.547Z,88.41
2023-06-24T20:56:58.409Z,88.46
2023-06-24T21:00:01.147Z,88.86
2023-06-24T21:03:04.044Z,88.95
2023-06-24T21:06:07.508Z,89.21
2023-06-24T21:09:10.237Z,89.31
2023-06-24T21:12:13.129Z,89.19
2023-06-24T21:15:18.310Z,88.33
2023-06-24T21:18:21.307Z,88.52
2023-06-24T21:21:24.067Z,88.31
2023-06-24T21:24:27.034Z,88.16
2023-06-24T21:27:29.727Z,87.57
2023-06-24T21:30:32.480Z,87.55
2023-06-24T21:33:35.172Z,87.02
2023-06-24T21:36:38.368Z,87.34
2023-06-24T21:39:41.085Z,87.47
2023-06-24T21:42:43.908Z,87.12
2023-06-24T21:45:46.608Z,87.25
2023-06-24T21:48:49.392Z,86.79
2023-06-24T21:51:54.504Z,87.07
2023-06-24T21:54:57.321Z,86.78
2023-06-24T21:58:00.035Z,86.80
2023-06-24T22:01:08.902Z,86.84
2023-06-24T22:04:11.722Z,86.64
2023-06-24T22:07:14.601Z,86.58
2023-06-24T22:10:17.388Z,86.46
2023-06-24T22:13:28.994Z,86.15
2023-06-24T22:16:31.733Z,85.84
2023-06-24T22:19:37.511Z,85.99
2023-06-24T22:22:44.366Z,85.58
2023-06-24T22:25:47.144Z,85.77
2023-06-24T22:28:50.539Z,85.77
2023-06-24T22:31:53.299Z,85.75
2023-06-24T22:34:58.901Z,85.77
2023-06-24T22:38:01.718Z,85.81
2023-06-24T22:41:04.830Z,85.58
2023-06-24T22:44:07.900Z,85.70
2023-06-24T22:47:10.685Z,85.60
2023-06-24T22:50:13.449Z,85.54
2023-06-24T22:53:19.255Z,85.59
2023-06-24T22:56:22.256Z,85.81
2023-06-24T22:59:25.278Z,85.80
2023-06-24T23:02:31.196Z,85.58
2023-06-24T23:05:34.216Z,85.88
2023-06-24T23:08:37.301Z,85.59
2023-06-24T23:11:40.156Z,85.73
2023-06-24T23:14:43.275Z,85.50
2023-06-24T23:17:46.289Z,85.75
2023-06-24T23:20:49.301Z,86.25
2023-06-24T23:23:53.461Z,86.30
2023-06-24T23:27:00.501Z,86.48
2023-06-24T23:30:10.278Z,86.07
2023-06-24T23:33:19.793Z,86.46
2023-06-24T23:36:22.738Z,86.63
2023-06-24T23:39:25.572Z,86.84
2023-06-24T23:42:29.062Z,86.61
2023-06-24T23:45:32.148Z,87.22
2023-06-24T23:48:34.959Z,87.21
2023-06-24T23:51:37.667Z,87.80
2023-06-24T23:54:40.348Z,87.74
2023-06-24T23:57:43.003Z,88.28
